sensor_id;sensor_type;location;lat;lon;timestamp;pressure;altitude;pressure_sealevel;temperature;humidity
83027;BME280;72842;56.038;12.706;2023-09-19T00:00:38;99950.16;;;22.25;69.86
83027;BME280;72842;56.038;12.706;2023-09-19T00:03:05;99945.16;;;22.16;70.23
83027;BME280;72842;56.038;12.706;2023-09-19T00:05:34;99944.31;;;22.08;70.30
83027;BME280;72842;56.038;12.706;2023-09-19T00:08:00;99939.72;;;22.02;70.66
83027;BME280;72842;56.038;12.706;2023-09-19T00:10:27;99941.63;;;21.95;70.84
83027;BME280;72842;56.038;12.706;2023-09-19T00:12:56;99931.34;;;21.91;70.98
83027;BME280;72842;56.038;12.706;2023-09-19T00:15:27;99931.16;;;21.86;71.00
83027;BME280;72842;56.038;12.706;2023-09-19T00:17:56;99933.66;;;21.80;71.14
83027;BME280;72842;56.038;12.706;2023-09-19T00:20:22;99932.00;;;21.79;71.09
83027;BME280;72842;56.038;12.706;2023-09-19T00:22:50;99924.47;;;21.75;71.09
83027;BME280;72842;56.038;12.706;2023-09-19T00:25:17;99921.09;;;21.73;71.51
83027;BME280;72842;56.038;12.706;2023-09-19T00:27:43;99914.81;;;21.72;71.40
83027;BME280;72842;56.038;12.706;2023-09-19T00:30:11;99916.09;;;21.70;71.49
83027;BME280;72842;56.038;12.706;2023-09-19T00:32:45;99922.78;;;21.67;71.47
83027;BME280;72842;56.038;12.706;2023-09-19T00:35:13;99920.28;;;21.66;71.54
83027;BME280;72842;56.038;12.706;2023-09-19T00:37:40;99919.69;;;21.64;71.42
83027;BME280;72842;56.038;12.706;2023-09-19T00:40:10;99927.00;;;21.63;71.40
83027;BME280;72842;56.038;12.706;2023-09-19T00:42:47;99919.03;;;21.62;71.43
83027;BME280;72842;56.038;12.706;2023-09-19T00:45:14;99911.91;;;21.61;71.27
83027;BME280;72842;56.038;12.706;2023-09-19T00:47:49;99919.69;;;21.57;71.25
83027;BME280;72842;56.038;12.706;2023-09-19T00:50:17;99906.91;;;21.58;71.14
83027;BME280;72842;56.038;12.706;2023-09-19T00:52:46;99912.34;;;21.58;71.01
83027;BME280;72842;56.038;12.706;2023-09-19T00:55:11;99903.53;;;21.55;70.90
83027;BME280;72842;56.038;12.706;2023-09-19T00:57:39;99894.53;;;21.55;70.89
83027;BME280;72842;56.038;12.706;2023-09-19T01:00:06;99898.09;;;21.55;70.80
83027;BME280;72842;56.038;12.706;2023-09-19T01:02:33;99892.84;;;21.54;70.63
83027;BME280;72842;56.038;12.706;2023-09-19T01:04:59;99901.03;;;21.54;70.64
83027;BME280;72842;56.038;12.706;2023-09-19T01:07:26;99889.91;;;21.55;70.43
83027;BME280;72842;56.038;12.706;2023-09-19T01:09:52;99898.09;;;21.55;70.37
83027;BME280;72842;56.038;12.706;2023-09-19T01:12:33;99884.91;;;21.52;70.30
83027;BME280;72842;56.038;12.706;2023-09-19T01:15:32;99884.91;;;21.52;69.95
83027;BME280;72842;56.038;12.706;2023-09-19T01:26:18;99866.25;;;21.49;69.13
83027;BME280;72842;56.038;12.706;2023-09-19T01:29:01;99866.25;;;21.49;69.34
83027;BME280;72842;56.038;12.706;2023-09-19T01:31:39;99860.81;;;21.49;69.45
83027;BME280;72842;56.038;12.706;2023-09-19T01:34:05;99840.72;;;21.50;69.29
83027;BME280;72842;56.038;12.706;2023-09-19T01:36:36;99841.75;;;21.49;69.35
83027;BME280;72842;56.038;12.706;2023-09-19T01:39:05;99855.38;;;21.43;69.26
83027;BME280;72842;56.038;12.706;2023-09-19T01:42:08;99838.63;;;21.46;69.01
83027;BME280;72842;56.038;12.706;2023-09-19T01:44:52;99852.47;;;21.44;68.49
83027;BME280;72842;56.038;12.706;2023-09-19T01:47:28;99840.53;;;21.45;68.31
83027;BME280;72842;56.038;12.706;2023-09-19T01:50:32;99859.16;;;21.42;67.49
83027;BME280;72842;56.038;12.706;2023-09-19T01:53:10;99856.22;;;21.43;67.97
83027;BME280;72842;56.038;12.706;2023-09-19T01:55:47;99862.72;;;21.42;67.83
83027;BME280;72842;56.038;12.706;2023-09-19T01:58:21;99860.00;;;21.42;67.98
83027;BME280;72842;56.038;12.706;2023-09-19T02:00:53;99861.66;;;21.43;67.67
83027;BME280;72842;56.038;12.706;2023-09-19T02:03:21;99874.03;;;21.46;67.61
83027;BME280;72842;56.038;12.706;2023-09-19T02:05:50;99870.47;;;21.45;67.35
83027;BME280;72842;56.038;12.706;2023-09-19T02:08:20;99866.09;;;21.44;66.93
83027;BME280;72842;56.038;12.706;2023-09-19T02:10:46;99869.66;;;21.38;66.88
83027;BME280;72842;56.038;12.706;2023-09-19T02:13:21;99873.59;;;21.42;66.89
83027;BME280;72842;56.038;12.706;2023-09-19T02:15:47;99867.53;;;21.40;66.66
83027;BME280;72842;56.038;12.706;2023-09-19T02:18:13;99885.16;;;21.38;66.71
83027;BME280;72842;56.038;12.706;2023-09-19T02:20:40;99873.81;;;21.34;66.46
83027;BME280;72842;56.038;12.706;2023-09-19T02:23:06;99884.94;;;21.33;66.21
83027;BME280;72842;56.038;12.706;2023-09-19T02:25:33;99878.66;;;21.32;65.97
83027;BME280;72842;56.038;12.706;2023-09-19T02:27:59;99879.72;;;21.31;65.90
83027;BME280;72842;56.038;12.706;2023-09-19T02:30:24;99871.72;;;21.30;65.62
83027;BME280;72842;56.038;12.706;2023-09-19T02:32:53;99861.25;;;21.26;65.62
83027;BME280;72842;56.038;12.706;2023-09-19T02:35:18;99861.25;;;21.26;65.60
83027;BME280;72842;56.038;12.706;2023-09-19T02:37:47;99868.56;;;21.26;65.44
83027;BME280;72842;56.038;12.706;2023-09-19T02:40:14;99874.22;;;21.24;65.38
83027;BME280;72842;56.038;12.706;2023-09-19T02:42:49;99876.31;;;21.22;65.17
83027;BME280;72842;56.038;12.706;2023-09-19T02:45:18;99876.53;;;21.21;65.18
83027;BME280;72842;56.038;12.706;2023-09-19T02:47:45;99870.47;;;21.19;65.20
83027;BME280;72842;56.038;12.706;2023-09-19T02:50:10;99871.31;;;21.19;65.20
83027;BME280;72842;56.038;12.706;2023-09-19T02:52:37;99869.63;;;21.18;65.17
83027;BME280;72842;56.038;12.706;2023-09-19T02:55:03;99864.19;;;21.18;64.95
83027;BME280;72842;56.038;12.706;2023-09-19T02:57:31;99865.03;;;21.19;64.83
83027;BME280;72842;56.038;12.706;2023-09-19T02:59:58;99875.91;;;21.19;64.84
83027;BME280;72842;56.038;12.706;2023-09-19T03:02:25;99857.03;;;21.17;64.79
83027;BME280;72842;56.038;12.706;2023-09-19T03:04:53;99866.03;;;21.18;64.69
83027;BME280;72842;56.038;12.706;2023-09-19T03:07:19;99855.81;;;21.13;64.70
83027;BME280;72842;56.038;12.706;2023-09-19T03:09:44;99866.03;;;21.18;64.73
83027;BME280;72842;56.038;12.706;2023-09-19T03:12:10;99866.25;;;21.16;64.86
83027;BME280;72842;56.038;12.706;2023-09-19T03:14:36;99861.88;;;21.15;64.77
83027;BME280;72842;56.038;12.706;2023-09-19T03:17:02;99852.25;;;21.13;64.89
83027;BME280;72842;56.038;12.706;2023-09-19T03:19:30;99858.72;;;21.12;64.68
83027;BME280;72842;56.038;12.706;2023-09-19T03:21:58;99875.03;;;21.12;64.84
83027;BME280;72842;56.038;12.706;2023-09-19T03:24:24;99868.78;;;21.11;65.00
83027;BME280;72842;56.038;12.706;2023-09-19T03:26:49;99868.16;;;21.09;64.75
83027;BME280;72842;56.038;12.706;2023-09-19T03:29:15;99853.72;;;21.09;64.92
83027;BME280;72842;56.038;12.706;2023-09-19T03:31:42;99858.09;;;21.10;64.76
83027;BME280;72842;56.038;12.706;2023-09-19T03:34:08;99849.94;;;21.10;64.69
83027;BME280;72842;56.038;12.706;2023-09-19T03:36:34;99860.81;;;21.10;64.83
83027;BME280;72842;56.038;12.706;2023-09-19T03:39:00;99860.81;;;21.10;64.77
83027;BME280;72842;56.038;12.706;2023-09-19T03:41:26;99862.50;;;21.11;64.75
83027;BME280;72842;56.038;12.706;2023-09-19T03:43:51;99856.44;;;21.09;64.61
83027;BME280;72842;56.038;12.706;2023-09-19T03:46:17;99851.22;;;21.07;64.69
83027;BME280;72842;56.038;12.706;2023-09-19T03:48:42;99847.66;;;21.07;64.81
83027;BME280;72842;56.038;12.706;2023-09-19T03:51:08;99855.81;;;21.07;64.65
83027;BME280;72842;56.038;12.706;2023-09-19T03:53:34;99853.28;;;21.05;64.62
83027;BME280;72842;56.038;12.706;2023-09-19T03:55:59;99859.16;;;21.02;64.71
83027;BME280;72842;56.038;12.706;2023-09-19T03:58:25;99853.72;;;21.02;64.55
83027;BME280;72842;56.038;12.706;2023-09-19T04:00:55;99865.88;;;20.99;64.47
83027;BME280;72842;56.038;12.706;2023-09-19T04:03:20;99871.31;;;20.99;64.44
83027;BME280;72842;56.038;12.706;2023-09-19T04:05:49;99876.09;;;20.97;64.50
83027;BME280;72842;56.038;12.706;2023-09-19T04:08:14;99874.44;;;20.96;64.69
83027;BME280;72842;56.038;12.706;2023-09-19T04:10:43;99867.94;;;20.97;64.65
83027;BME280;72842;56.038;12.706;2023-09-19T04:13:09;99879.47;;;20.99;64.55
83027;BME280;72842;56.038;12.706;2023-09-19T04:15:34;99875.47;;;20.95;64.60
83027;BME280;72842;56.038;12.706;2023-09-19T04:18:00;99885.31;;;20.96;64.34
83027;BME280;72842;56.038;12.706;2023-09-19T04:20:25;99889.06;;;20.95;64.33
83027;BME280;72842;56.038;12.706;2023-09-19T04:22:51;99899.34;;;20.93;64.22
83027;BME280;72842;56.038;12.706;2023-09-19T04:25:16;99887.81;;;20.91;64.25
83027;BME280;72842;56.038;12.706;2023-09-19T04:27:44;99890.53;;;20.91;64.10
83027;BME280;72842;56.038;12.706;2023-09-19T04:30:10;99887.59;;;20.93;63.98
83027;BME280;72842;56.038;12.706;2023-09-19T04:32:37;99891.56;;;20.90;64.18
83027;BME280;72842;56.038;12.706;2023-09-19T04:35:05;99893.47;;;20.90;63.83
83027;BME280;72842;56.038;12.706;2023-09-19T04:37:35;99893.91;;;20.87;63.73
83027;BME280;72842;56.038;12.706;2023-09-19T04:40:00;99892.19;;;20.86;63.54
83027;BME280;72842;56.038;12.706;2023-09-19T04:42:26;99900.56;;;20.84;63.21
83027;BME280;72842;56.038;12.706;2023-09-19T04:44:52;99901.00;;;20.81;63.05
83027;BME280;72842;56.038;12.706;2023-09-19T04:47:18;99915.22;;;20.83;63.04
83027;BME280;72842;56.038;12.706;2023-09-19T04:49:43;99914.78;;;20.80;62.51
83027;BME280;72842;56.038;12.706;2023-09-19T04:52:09;99910.59;;;20.77;62.51
83027;BME280;72842;56.038;12.706;2023-09-19T04:54:34;99921.69;;;20.76;62.39
83027;BME280;72842;56.038;12.706;2023-09-19T04:57:00;99913.91;;;20.72;62.30
83027;BME280;72842;56.038;12.706;2023-09-19T04:59:26;99919.78;;;20.69;62.33
83027;BME280;72842;56.038;12.706;2023-09-19T05:01:51;99917.28;;;20.68;62.13
83027;BME280;72842;56.038;12.706;2023-09-19T05:04:17;99925.63;;;20.66;61.90
83027;BME280;72842;56.038;12.706;2023-09-19T05:06:42;99916.00;;;20.64;61.89
83027;BME280;72842;56.038;12.706;2023-09-19T05:09:08;99931.47;;;20.63;61.74
83027;BME280;72842;56.038;12.706;2023-09-19T05:11:33;99921.00;;;20.60;61.37
83027;BME280;72842;56.038;12.706;2023-09-19T05:13:59;99933.53;;;20.61;61.33
83027;BME280;72842;56.038;12.706;2023-09-19T05:16:29;99927.47;;;20.59;61.15
83027;BME280;72842;56.038;12.706;2023-09-19T05:18:57;99926.44;;;20.60;60.89
83027;BME280;72842;56.038;12.706;2023-09-19T05:21:23;99927.47;;;20.59;61.05
83027;BME280;72842;56.038;12.706;2023-09-19T05:23:51;99933.13;;;20.58;60.84
83027;BME280;72842;56.038;12.706;2023-09-19T05:26:17;99964.94;;;20.57;60.81
83027;BME280;72842;56.038;12.706;2023-09-19T05:28:43;99942.53;;;20.55;60.65
83027;BME280;72842;56.038;12.706;2023-09-19T05:31:08;99936.66;;;20.52;60.62
83027;BME280;72842;56.038;12.706;2023-09-19T05:33:34;99949.22;;;20.53;60.57
83027;BME280;72842;56.038;12.706;2023-09-19T05:35:59;99940.22;;;20.52;60.19
83027;BME280;72842;56.038;12.706;2023-09-19T05:38:25;99938.97;;;20.55;60.08
83027;BME280;72842;56.038;12.706;2023-09-19T05:40:52;99944.41;;;20.55;59.91
83027;BME280;72842;56.038;12.706;2023-09-19T05:43:18;99946.97;;;20.63;59.60
83027;BME280;72842;56.038;12.706;2023-09-19T05:45:44;99945.50;;;20.67;59.46
83027;BME280;72842;56.038;12.706;2023-09-19T05:48:14;99954.50;;;20.74;59.15
83027;BME280;72842;56.038;12.706;2023-09-19T05:50:41;99960.16;;;20.79;59.14
83027;BME280;72842;56.038;12.706;2023-09-19T05:53:07;99953.28;;;20.83;59.05
83027;BME280;72842;56.038;12.706;2023-09-19T05:55:33;99965.03;;;20.90;58.90
83027;BME280;72842;56.038;12.706;2023-09-19T05:57:59;99958.97;;;20.95;58.65
83027;BME280;72842;56.038;12.706;2023-09-19T06:00:25;99964.22;;;21.03;58.43
83027;BME280;72842;56.038;12.706;2023-09-19T06:02:56;99970.50;;;21.10;58.32
83027;BME280;72842;56.038;12.706;2023-09-19T06:05:23;99973.22;;;21.17;58.12
83027;BME280;72842;56.038;12.706;2023-09-19T06:07:49;99972.19;;;21.24;57.82
83027;BME280;72842;56.038;12.706;2023-09-19T06:10:15;99988.59;;;21.31;57.67
83027;BME280;72842;56.038;12.706;2023-09-19T06:12:42;99991.72;;;21.35;57.45
83027;BME280;72842;56.038;12.706;2023-09-19T06:15:12;99996.53;;;21.39;57.21
83027;BME280;72842;56.038;12.706;2023-09-19T06:17:47;99992.34;;;21.43;57.08
83027;BME280;72842;56.038;12.706;2023-09-19T06:20:13;99989.00;;;21.48;56.97
83027;BME280;72842;56.038;12.706;2023-09-19T06:22:43;99998.22;;;21.53;56.69
83027;BME280;72842;56.038;12.706;2023-09-19T06:25:13;99985.88;;;21.51;56.65
83027;BME280;72842;56.038;12.706;2023-09-19T06:27:45;99984.38;;;21.42;56.80
83027;BME280;72842;56.038;12.706;2023-09-19T06:30:10;100002.38;;;21.43;56.83
83027;BME280;72842;56.038;12.706;2023-09-19T06:32:42;100006.16;;;21.35;56.69
83027;BME280;72842;56.038;12.706;2023-09-19T06:35:12;100015.81;;;21.31;56.93
83027;BME280;72842;56.038;12.706;2023-09-19T06:37:39;100019.94;;;21.27;57.05
83027;BME280;72842;56.038;12.706;2023-09-19T06:40:10;100006.94;;;21.22;56.81
83027;BME280;72842;56.038;12.706;2023-09-19T06:42:50;100006.53;;;21.19;56.46
83027;BME280;72842;56.038;12.706;2023-09-19T06:45:16;100014.47;;;21.14;57.14
83027;BME280;72842;56.038;12.706;2023-09-19T06:47:49;100029.75;;;21.15;57.02
83027;BME280;72842;56.038;12.706;2023-09-19T06:50:15;100027.25;;;21.13;56.50
83027;BME280;72842;56.038;12.706;2023-09-19T06:52:44;100033.75;;;21.19;57.13
83027;BME280;72842;56.038;12.706;2023-09-19T06:55:10;100037.94;;;21.28;56.78
83027;BME280;72842;56.038;12.706;2023-09-19T06:57:39;100039.88;;;21.34;56.65
83027;BME280;72842;56.038;12.706;2023-09-19T07:00:06;100044.06;;;21.37;56.77
83027;BME280;72842;56.038;12.706;2023-09-19T07:02:44;100050.56;;;21.42;56.24
83027;BME280;72842;56.038;12.706;2023-09-19T07:05:09;100044.72;;;21.52;55.74
83027;BME280;72842;56.038;12.706;2023-09-19T07:07:35;100054.34;;;21.61;55.42
83027;BME280;72842;56.038;12.706;2023-09-19T07:10:02;100052.06;;;21.65;55.00
83027;BME280;72842;56.038;12.706;2023-09-19T07:12:28;100053.31;;;21.62;54.87
83027;BME280;72842;56.038;12.706;2023-09-19T07:14:54;100052.06;;;21.58;54.82
83027;BME280;72842;56.038;12.706;2023-09-19T07:17:20;100059.78;;;21.54;54.43
83027;BME280;72842;56.038;12.706;2023-09-19T07:19:46;100064.19;;;21.49;54.32
83027;BME280;72842;56.038;12.706;2023-09-19T07:22:13;100060.44;;;21.50;53.67
83027;BME280;72842;56.038;12.706;2023-09-19T07:24:38;100054.94;;;21.43;53.67
83027;BME280;72842;56.038;12.706;2023-09-19T07:27:04;100045.53;;;21.39;53.41
83027;BME280;72842;56.038;12.706;2023-09-19T07:29:30;100061.06;;;21.45;53.11
83027;BME280;72842;56.038;12.706;2023-09-19T07:31:56;100072.78;;;21.52;52.76
83027;BME280;72842;56.038;12.706;2023-09-19T07:34:21;100071.72;;;21.47;52.71
83027;BME280;72842;56.038;12.706;2023-09-19T07:36:48;100071.94;;;21.45;52.65
83027;BME280;72842;56.038;12.706;2023-09-19T07:39:13;100088.28;;;21.45;52.52
83027;BME280;72842;56.038;12.706;2023-09-19T07:41:39;100076.34;;;21.46;52.15
83027;BME280;72842;56.038;12.706;2023-09-19T07:44:04;100066.28;;;21.40;52.02
83027;BME280;72842;56.038;12.706;2023-09-19T07:46:30;100063.75;;;21.39;52.16
83027;BME280;72842;56.038;12.706;2023-09-19T07:48:57;100068.16;;;21.40;51.92
83027;BME280;72842;56.038;12.706;2023-09-19T07:51:22;100080.09;;;21.39;51.68
83027;BME280;72842;56.038;12.706;2023-09-19T07:53:48;100086.78;;;21.36;51.60
83027;BME280;72842;56.038;12.706;2023-09-19T07:56:14;100081.97;;;21.38;51.39
83027;BME280;72842;56.038;12.706;2023-09-19T07:58:40;100060.44;;;21.50;51.27
83027;BME280;72842;56.038;12.706;2023-09-19T08:01:10;100076.78;;;21.57;51.11
83027;BME280;72842;56.038;12.706;2023-09-19T08:03:37;100084.53;;;21.60;50.53
83027;BME280;72842;56.038;12.706;2023-09-19T08:06:09;100088.50;;;21.57;50.63
83027;BME280;72842;56.038;12.706;2023-09-19T08:08:36;100088.91;;;21.54;50.76
83027;BME280;72842;56.038;12.706;2023-09-19T08:11:03;100104.41;;;21.53;50.56
83027;BME280;72842;56.038;12.706;2023-09-19T08:13:36;100097.06;;;21.47;50.53
83027;BME280;72842;56.038;12.706;2023-09-19T08:16:03;100088.66;;;21.42;50.65
83027;BME280;72842;56.038;12.706;2023-09-19T08:18:30;100081.97;;;21.38;50.63
83027;BME280;72842;56.038;12.706;2023-09-19T08:20:55;100093.06;;;21.37;50.42
83027;BME280;72842;56.038;12.706;2023-09-19T08:23:24;100100.81;;;21.33;50.42
83027;BME280;72842;56.038;12.706;2023-09-19T08:25:49;100102.03;;;21.31;50.17
83027;BME280;72842;56.038;12.706;2023-09-19T08:28:15;100094.47;;;21.26;50.12
83027;BME280;72842;56.038;12.706;2023-09-19T08:30:45;100093.81;;;21.24;49.93
83027;BME280;72842;56.038;12.706;2023-09-19T08:33:10;100101.56;;;21.20;49.84
83027;BME280;72842;56.038;12.706;2023-09-19T08:35:36;100093.19;;;21.15;49.89
83027;BME280;72842;56.038;12.706;2023-09-19T08:38:05;100098.59;;;21.09;49.72
83027;BME280;72842;56.038;12.706;2023-09-19T08:40:31;100136.66;;;21.02;49.78
83027;BME280;72842;56.038;12.706;2023-09-19T08:42:59;100172.00;;;20.95;50.15
83027;BME280;72842;56.038;12.706;2023-09-19T08:45:26;100166.06;;;20.85;50.48
83027;BME280;72842;56.038;12.706;2023-09-19T08:48:23;100149.66;;;20.72;50.31
83027;BME280;72842;56.038;12.706;2023-09-19T08:55:55;100144.06;;;20.45;52.28
83027;BME280;72842;56.038;12.706;2023-09-19T08:58:26;100158.88;;;20.43;52.75
83027;BME280;72842;56.038;12.706;2023-09-19T09:00:56;100159.25;;;20.40;52.69
83027;BME280;72842;56.038;12.706;2023-09-19T09:03:24;100154.22;;;20.37;52.93
83027;BME280;72842;56.038;12.706;2023-09-19T09:05:51;100156.28;;;20.35;53.22
83027;BME280;72842;56.038;12.706;2023-09-19T09:08:19;100155.00;;;20.31;53.36
83027;BME280;72842;56.038;12.706;2023-09-19T09:10:47;100148.47;;;20.25;53.54
83027;BME280;72842;56.038;12.706;2023-09-19T09:13:12;100160.41;;;20.24;53.76
83027;BME280;72842;56.038;12.706;2023-09-19T09:15:41;100158.91;;;20.21;54.03
83027;BME280;72842;56.038;12.706;2023-09-19T09:18:06;100166.22;;;20.21;54.13
83027;BME280;72842;56.038;12.706;2023-09-19T09:20:32;100159.31;;;20.18;54.31
83027;BME280;72842;56.038;12.706;2023-09-19T09:22:58;100182.47;;;20.14;54.29
83027;BME280;72842;56.038;12.706;2023-09-19T09:28:20;100163.19;;;20.09;54.46
83027;BME280;72842;56.038;12.706;2023-09-19T09:30:46;100169.06;;;20.13;54.53
83027;BME280;72842;56.038;12.706;2023-09-19T09:33:13;100162.41;;;20.15;54.39
83027;BME280;72842;56.038;12.706;2023-09-19T09:35:56;100163.03;;;20.17;54.79
83027;BME280;72842;56.038;12.706;2023-09-19T09:38:26;100168.09;;;20.20;54.69
83027;BME280;72842;56.038;12.706;2023-09-19T09:40:56;100165.16;;;20.22;54.58
83027;BME280;72842;56.038;12.706;2023-09-19T09:43:36;100156.22;;;20.28;54.59
83027;BME280;72842;56.038;12.706;2023-09-19T09:46:16;100157.56;;;20.39;54.72
83027;BME280;72842;56.038;12.706;2023-09-19T09:48:55;100167.75;;;20.52;54.57
83027;BME280;72842;56.038;12.706;2023-09-19T09:51:42;100176.56;;;20.60;54.47
83027;BME280;72842;56.038;12.706;2023-09-19T09:54:12;100163.75;;;20.26;55.96
83027;BME280;72842;56.038;12.706;2023-09-19T09:56:57;100173.59;;;20.06;56.50
83027;BME280;72842;56.038;12.706;2023-09-19T09:59:53;100166.53;;;19.90;56.89
83027;BME280;72842;56.038;12.706;2023-09-19T10:02:29;100175.03;;;19.80;57.04
83027;BME280;72842;56.038;12.706;2023-09-19T10:05:15;100167.06;;;19.79;56.85
83027;BME280;72842;56.038;12.706;2023-09-19T10:07:49;100178.25;;;19.69;56.66
83027;BME280;72842;56.038;12.706;2023-09-19T10:13:11;100167.53;;;19.82;59.40
83027;BME280;72842;56.038;12.706;2023-09-19T10:15:49;100167.41;;;20.12;59.11
83027;BME280;72842;56.038;12.706;2023-09-19T10:18:20;100164.16;;;20.02;57.25
83027;BME280;72842;56.038;12.706;2023-09-19T10:20:46;100167.44;;;19.97;57.74
83027;BME280;72842;56.038;12.706;2023-09-19T10:23:14;100169.31;;;19.97;59.60
83027;BME280;72842;56.038;12.706;2023-09-19T10:25:43;100163.50;;;20.21;59.92
83027;BME280;72842;56.038;12.706;2023-09-19T10:28:13;100162.56;;;20.35;59.96
83027;BME280;72842;56.038;12.706;2023-09-19T10:30:43;100165.03;;;20.52;58.17
83027;BME280;72842;56.038;12.706;2023-09-19T10:33:11;100174.09;;;20.37;56.05
83027;BME280;72842;56.038;12.706;2023-09-19T10:35:45;100184.50;;;20.34;57.79
83027;BME280;72842;56.038;12.706;2023-09-19T10:38:12;100175.53;;;20.61;56.97
83027;BME280;72842;56.038;12.706;2023-09-19T10:40:39;100171.97;;;20.61;54.53
83027;BME280;72842;56.038;12.706;2023-09-19T10:43:21;100175.34;;;20.63;53.15
83027;BME280;72842;56.038;12.706;2023-09-19T10:45:49;100178.06;;;20.63;52.58
83027;BME280;72842;56.038;12.706;2023-09-19T10:48:16;100184.84;;;20.45;52.48
83027;BME280;72842;56.038;12.706;2023-09-19T10:50:50;100146.50;;;20.12;52.39
83027;BME280;72842;56.038;12.706;2023-09-19T10:53:17;100172.28;;;20.23;52.72
83027;BME280;72842;56.038;12.706;2023-09-19T10:55:49;100173.59;;;20.06;52.96
83027;BME280;72842;56.038;12.706;2023-09-19T10:58:28;100175.91;;;20.30;51.87
83027;BME280;72842;56.038;12.706;2023-09-19T11:00:58;100166.53;;;20.61;52.98
83027;BME280;72842;56.038;12.706;2023-09-19T11:03:35;100169.34;;;20.74;51.15
83027;BME280;72842;56.038;12.706;2023-09-19T11:06:16;100172.91;;;21.09;52.85
83027;BME280;72842;56.038;12.706;2023-09-19T11:08:56;100157.91;;;21.26;49.02
83027;BME280;72842;56.038;12.706;2023-09-19T11:11:45;100171.31;;;21.28;49.17
83027;BME280;72842;56.038;12.706;2023-09-19T11:14:16;100185.22;;;21.40;50.01
83027;BME280;72842;56.038;12.706;2023-09-19T11:25:43;100190.75;;;21.18;46.50
83027;BME280;72842;56.038;12.706;2023-09-19T11:28:28;100198.00;;;21.39;46.33
83027;BME280;72842;56.038;12.706;2023-09-19T11:30:53;100194.28;;;21.53;46.38
83027;BME280;72842;56.038;12.706;2023-09-19T11:33:30;100200.97;;;21.51;45.59
83027;BME280;72842;56.038;12.706;2023-09-19T11:36:08;100187.00;;;21.19;45.57
83027;BME280;72842;56.038;12.706;2023-09-19T11:43:48;100205.09;;;21.06;45.63
83027;BME280;72842;56.038;12.706;2023-09-19T11:46:13;100205.91;;;20.65;45.40
83027;BME280;72842;56.038;12.706;2023-09-19T11:48:43;100206.34;;;20.68;45.74
83027;BME280;72842;56.038;12.706;2023-09-19T11:51:14;100203.91;;;20.80;45.74
83027;BME280;72842;56.038;12.706;2023-09-19T11:53:46;100209.00;;;20.90;45.98
83027;BME280;72842;56.038;12.706;2023-09-19T11:56:15;100212.94;;;21.22;45.20
83027;BME280;72842;56.038;12.706;2023-09-19T11:58:43;100204.25;;;21.05;44.86
83027;BME280;72842;56.038;12.706;2023-09-19T12:01:13;100206.63;;;20.80;45.69
83027;BME280;72842;56.038;12.706;2023-09-19T12:03:46;100213.94;;;20.80;45.11
83027;BME280;72842;56.038;12.706;2023-09-19T12:06:14;100190.91;;;20.76;45.76
83027;BME280;72842;56.038;12.706;2023-09-19T12:08:41;100196.22;;;20.90;45.89
83027;BME280;72842;56.038;12.706;2023-09-19T12:11:14;100199.19;;;20.95;46.30
83027;BME280;72842;56.038;12.706;2023-09-19T12:13:45;100198.22;;;21.10;46.51
83027;BME280;72842;56.038;12.706;2023-09-19T12:16:13;100199.91;;;21.11;47.00
83027;BME280;72842;56.038;12.706;2023-09-19T12:18:40;100209.53;;;21.07;46.89
83027;BME280;72842;56.038;12.706;2023-09-19T12:26:30;100194.34;;;20.91;46.96
83027;BME280;72842;56.038;12.706;2023-09-19T12:28:59;100208.41;;;20.94;47.39
83027;BME280;72842;56.038;12.706;2023-09-19T12:31:27;100188.34;;;20.67;46.91
83027;BME280;72842;56.038;12.706;2023-09-19T12:33:54;100193.53;;;20.41;46.38
83027;BME280;72842;56.038;12.706;2023-09-19T12:36:21;100185.50;;;20.26;46.23
83027;BME280;72842;56.038;12.706;2023-09-19T12:38:57;100188.34;;;20.18;46.29
83027;BME280;72842;56.038;12.706;2023-09-19T12:41:28;100193.53;;;20.13;46.51
83027;BME280;72842;56.038;12.706;2023-09-19T12:43:54;100200.56;;;20.07;46.93
83027;BME280;72842;56.038;12.706;2023-09-19T12:46:21;100195.84;;;19.94;47.32
83027;BME280;72842;56.038;12.706;2023-09-19T12:49:16;100198.50;;;19.88;47.00
83027;BME280;72842;56.038;12.706;2023-09-19T12:51:48;100207.63;;;19.80;47.34
83027;BME280;72842;56.038;12.706;2023-09-19T12:54:14;100203.81;;;19.60;48.14
83027;BME280;72842;56.038;12.706;2023-09-19T12:56:43;100212.03;;;19.52;48.26
83027;BME280;72842;56.038;12.706;2023-09-19T12:59:12;100205.97;;;19.50;48.74
83027;BME280;72842;56.038;12.706;2023-09-19T13:01:39;100208.41;;;19.45;51.02
83027;BME280;72842;56.038;12.706;2023-09-19T13:04:20;100211.44;;;19.20;52.56
83027;BME280;72842;56.038;12.706;2023-09-19T13:06:52;100214.53;;;19.02;53.96
83027;BME280;72842;56.038;12.706;2023-09-19T13:09:20;100216.78;;;18.99;54.25
83027;BME280;72842;56.038;12.706;2023-09-19T13:11:47;100215.38;;;19.03;54.29
83027;BME280;72842;56.038;12.706;2023-09-19T13:17:00;100215.84;;;19.06;54.21
83027;BME280;72842;56.038;12.706;2023-09-19T13:19:45;100203.47;;;19.04;54.30
83027;BME280;72842;56.038;12.706;2023-09-19T13:25:09;100195.53;;;19.02;54.74
83027;BME280;72842;56.038;12.706;2023-09-19T13:27:43;100193.03;;;19.01;55.38
83027;BME280;72842;56.038;12.706;2023-09-19T13:30:10;100205.25;;;18.97;55.63
83027;BME280;72842;56.038;12.706;2023-09-19T13:32:36;100197.13;;;18.82;56.20
83027;BME280;72842;56.038;12.706;2023-09-19T13:35:02;100191.72;;;18.97;56.01
83027;BME280;72842;56.038;12.706;2023-09-19T13:37:30;100202.28;;;19.06;55.50
83027;BME280;72842;56.038;12.706;2023-09-19T13:39:56;100203.31;;;19.05;55.52